Good Hope, Georgia
Current Conditions -  °F | °C
As of 2:55 AM on Saturday 01 Nov 2014 (Local Time) from KWDR Reporting Station
Overcast Overcast  
Wind Chill: 34°   Ceiling: 8500
Heat Index: 41°   Visibility: 10mi
Dew Point: 32°   Wind: 13mph
Humidity: 70%   Direction: 320°NW
Pressure: 29.9"   Gusts: 22mph
Location:  33.78°N, 83.61°W
Report Text: KWDR 010655Z AUTO 32011G19KT 10SM SCT031 SCT075 OVC085 05/00 A2990 RMK AO2 T00510000
Loading
Personal Weather Stations






























Interactive Weather Map
Tropical Storm Tracking
New forecast layout! Learn more

10-Day Weather Forecast

Advertisements
Track Severe Weather on mobile